createdAt,value
2019-05-18T00:00:56.494Z,98730.77
2019-05-18T00:03:31.273Z,98728.84
2019-05-18T00:06:05.648Z,98732.12
2019-05-18T00:08:40.162Z,98733.92
2019-05-18T00:11:14.516Z,98739.82
2019-05-18T00:13:48.918Z,98738.20
2019-05-18T00:16:23.312Z,98739.27
2019-05-18T00:18:57.724Z,98739.36
2019-05-18T00:21:31.790Z,98742.09
2019-05-18T00:24:06.165Z,98744.19
2019-05-18T00:26:40.603Z,98746.75
2019-05-18T00:29:15.043Z,98751.36
2019-05-18T00:31:49.288Z,98753.28
2019-05-18T00:34:23.813Z,98752.17
2019-05-18T00:36:57.941Z,98762.03
2019-05-18T00:39:32.444Z,98760.63
2019-05-18T00:42:06.670Z,98770.48
2019-05-18T00:44:40.944Z,98770.66
2019-05-18T00:47:15.370Z,98774.20
2019-05-18T00:49:49.442Z,98781.28
2019-05-18T00:52:23.707Z,98780.98
2019-05-18T00:54:57.797Z,98790.44
2019-05-18T00:57:32.057Z,98786.51
2019-05-18T01:00:08.134Z,98785.66
2019-05-18T01:02:42.550Z,98792.50
2019-05-18T01:05:16.462Z,98794.80
2019-05-18T01:07:50.529Z,98798.55
2019-05-18T01:10:24.778Z,98795.81
2019-05-18T01:12:59.225Z,98800.67
2019-05-18T01:15:33.514Z,98806.06
2019-05-18T01:18:07.746Z,98817.13
2019-05-18T01:20:41.804Z,98824.77
2019-05-18T01:23:16.150Z,98820.55
2019-05-18T01:25:50.161Z,98826.31
2019-05-18T01:28:24.271Z,98839.89
2019-05-18T01:30:57.983Z,98828.09
2019-05-18T01:33:31.789Z,98829.80
2019-05-18T01:36:06.674Z,98824.49
2019-05-18T01:38:40.461Z,98834.11
2019-05-18T01:41:14.458Z,98835.67
2019-05-18T01:43:48.963Z,98835.58
2019-05-18T01:46:23.030Z,98841.05
2019-05-18T01:48:57.156Z,98831.26
2019-05-18T01:51:31.252Z,98838.94
2019-05-18T01:54:05.409Z,98843.30
2019-05-18T01:56:39.458Z,98849.25
2019-05-18T01:59:13.557Z,98852.78
2019-05-18T02:01:47.891Z,98852.48
2019-05-18T02:04:22.105Z,98856.28
2019-05-18T02:06:56.276Z,98856.38
2019-05-18T02:09:30.541Z,98859.52
2019-05-18T02:12:04.707Z,98859.52
2019-05-18T02:14:38.952Z,98860.84
2019-05-18T02:17:12.845Z,98856.67
2019-05-18T02:19:46.773Z,98856.48
2019-05-18T02:22:20.705Z,98858.70
2019-05-18T02:24:54.908Z,98857.86
2019-05-18T02:27:29.016Z,98867.22
2019-05-18T02:30:02.961Z,98865.08
2019-05-18T02:32:37.738Z,98872.41
2019-05-18T02:35:11.839Z,98867.77
2019-05-18T02:37:46.009Z,98869.13
2019-05-18T02:40:20.370Z,98865.90
2019-05-18T02:42:54.981Z,98865.33
2019-05-18T02:45:29.373Z,98863.97
2019-05-18T02:48:03.454Z,98861.23
2019-05-18T02:50:37.795Z,98862.39
2019-05-18T02:53:12.174Z,98871.77
2019-05-18T02:55:46.158Z,98877.03
2019-05-18T02:58:20.506Z,98874.84
2019-05-18T03:00:54.684Z,98888.36
2019-05-18T03:03:29.174Z,98892.65
2019-05-18T03:06:03.396Z,98891.23
2019-05-18T03:08:37.546Z,98889.52
2019-05-18T03:11:12.267Z,98893.67
2019-05-18T03:13:46.638Z,98896.09
2019-05-18T03:16:21.101Z,98908.19
2019-05-18T03:19:07.368Z,98905.56
2019-05-18T03:21:32.193Z,98906.90
2019-05-18T03:24:06.731Z,98898.19
2019-05-18T03:26:40.897Z,98906.40
2019-05-18T03:29:15.844Z,98904.13
2019-05-18T03:31:49.967Z,98906.98
2019-05-18T03:34:24.164Z,98902.73
2019-05-18T03:36:58.391Z,98920.09
2019-05-18T03:39:32.600Z,98913.84
2019-05-18T03:42:06.985Z,98923.47
2019-05-18T03:44:41.143Z,98928.45
2019-05-18T03:47:15.229Z,98926.33
2019-05-18T03:49:50.473Z,98930.20
2019-05-18T03:52:24.595Z,98930.81
2019-05-18T03:54:58.706Z,98929.46
2019-05-18T03:57:33.003Z,98933.89
2019-05-18T04:00:07.816Z,98937.00
2019-05-18T04:02:41.839Z,98941.97
2019-05-18T04:05:16.191Z,98939.58
2019-05-18T04:07:50.404Z,98937.95
2019-05-18T04:10:30.533Z,98940.40
2019-05-18T04:13:04.665Z,98936.84
2019-05-18T04:15:38.873Z,98946.99
2019-05-18T04:18:13.104Z,98950.03
2019-05-18T04:20:47.032Z,98939.33
2019-05-18T04:23:21.098Z,98942.66
2019-05-18T04:25:56.073Z,98946.80
2019-05-18T04:28:30.176Z,98942.25
2019-05-18T04:31:04.518Z,98938.47
2019-05-18T04:33:38.629Z,98940.40
2019-05-18T04:36:12.951Z,98945.34
2019-05-18T04:38:46.973Z,98953.07
2019-05-18T04:41:21.413Z,98952.23
2019-05-18T04:43:55.733Z,98949.73
2019-05-18T04:46:29.630Z,98944.25
2019-05-18T04:49:03.911Z,98938.77
2019-05-18T04:51:38.255Z,98944.83
2019-05-18T04:54:12.550Z,98937.12
2019-05-18T04:56:47.491Z,98928.61
2019-05-18T04:59:21.321Z,98929.74
2019-05-18T05:01:55.647Z,98925.34
2019-05-18T05:04:29.779Z,98928.93
2019-05-18T05:07:04.024Z,98929.22
2019-05-18T05:09:38.392Z,98926.47
2019-05-18T05:12:13.233Z,98928.10
2019-05-18T05:14:59.544Z,98923.98
2019-05-18T05:17:33.791Z,98929.77
2019-05-18T05:20:19.440Z,98923.71
2019-05-18T05:22:44.223Z,98932.52
2019-05-18T05:25:18.575Z,98938.29
2019-05-18T05:27:52.549Z,98937.20
2019-05-18T05:30:26.532Z,98931.16
2019-05-18T05:33:00.465Z,98929.52
2019-05-18T05:35:37.611Z,98925.67
2019-05-18T05:38:11.159Z,98920.72
2019-05-18T05:40:45.384Z,98921.54
2019-05-18T05:43:19.423Z,98914.41
2019-05-18T05:45:53.650Z,98922.38
2019-05-18T05:48:27.694Z,98912.50
2019-05-18T05:51:02.271Z,98911.13
2019-05-18T05:53:36.405Z,98921.84
2019-05-18T05:56:10.304Z,98919.91
2019-05-18T05:58:44.646Z,98918.53
2019-05-18T06:01:18.939Z,98914.14
2019-05-18T06:03:52.896Z,98909.77
2019-05-18T06:06:26.749Z,98904.00
2019-05-18T06:09:00.801Z,98903.16
2019-05-18T06:11:35.184Z,98905.10
2019-05-18T06:14:09.379Z,98901.80
2019-05-18T06:16:43.395Z,98880.37
2019-05-18T06:19:17.267Z,98887.78
2019-05-18T06:21:51.388Z,98892.19
2019-05-18T06:24:25.518Z,98876.80
2019-05-18T06:26:59.520Z,98875.99
2019-05-18T06:29:33.513Z,98873.50
2019-05-18T06:32:07.635Z,98870.75
2019-05-18T06:34:41.663Z,98869.95
2019-05-18T06:37:15.757Z,98869.14
2019-05-18T06:39:50.285Z,98868.86
2019-05-18T06:42:24.598Z,98863.89
2019-05-18T06:44:58.743Z,98860.07
2019-05-18T06:47:33.908Z,98860.92
2019-05-18T06:50:11.359Z,98851.55
2019-05-18T06:52:43.865Z,98854.06
2019-05-18T06:55:18.066Z,98852.13
2019-05-18T06:57:52.542Z,98840.34
2019-05-18T07:00:26.794Z,98837.58
2019-05-18T07:03:02.697Z,98834.27
2019-05-18T07:05:36.511Z,98837.30
2019-05-18T07:08:13.226Z,98833.19
2019-05-18T07:10:47.475Z,98835.66
2019-05-18T07:13:21.478Z,98819.70
2019-05-18T07:15:55.665Z,98835.39
2019-05-18T07:18:29.436Z,98824.12
2019-05-18T07:21:03.454Z,98813.13
2019-05-18T07:23:37.256Z,98820.53
2019-05-18T07:26:11.297Z,98811.73
2019-05-18T07:28:45.312Z,98808.44
2019-05-18T07:31:19.401Z,98803.75
2019-05-18T07:33:53.262Z,98798.00
2019-05-18T07:36:27.150Z,98795.81
2019-05-18T07:39:01.213Z,98787.84
2019-05-18T07:41:46.151Z,98794.94
2019-05-18T07:44:20.496Z,98789.75
2019-05-18T07:46:54.769Z,98796.63
2019-05-18T07:49:28.882Z,98783.97
2019-05-18T07:52:02.902Z,98785.34
2019-05-18T07:54:36.798Z,98781.77
2019-05-18T07:57:13.970Z,98780.11
2019-05-18T07:59:47.903Z,98774.89
2019-05-18T08:02:22.112Z,98764.42
2019-05-18T08:04:56.264Z,98771.86
2019-05-18T08:07:30.272Z,98768.58
2019-05-18T08:10:04.432Z,98760.05
2019-05-18T08:12:38.225Z,98760.86
2019-05-18T08:15:13.885Z,98767.48
2019-05-18T08:17:47.663Z,98768.86
2019-05-18T08:20:21.569Z,98767.73
2019-05-18T08:22:55.896Z,98759.77
2019-05-18T08:25:30.260Z,98752.61
2019-05-18T08:28:08.149Z,98744.92
2019-05-18T08:30:42.021Z,98746.58
2019-05-18T08:33:16.065Z,98750.95
2019-05-18T08:35:50.237Z,98752.05
2019-05-18T08:38:24.188Z,98742.42
2019-05-18T08:40:58.288Z,98754.27
2019-05-18T08:43:32.332Z,98748.48
2019-05-18T08:46:06.340Z,98745.73
2019-05-18T08:48:40.447Z,98738.02
2019-05-18T08:51:14.369Z,98736.64
2019-05-18T08:53:48.916Z,98734.17
2019-05-18T08:56:23.923Z,98725.11
2019-05-18T08:58:57.969Z,98726.73
2019-05-18T09:01:31.744Z,98726.73
2019-05-18T09:04:05.807Z,98730.05
2019-05-18T09:06:39.793Z,98720.42
2019-05-18T09:09:13.830Z,98721.80
2019-05-18T09:11:47.793Z,98720.42
2019-05-18T09:14:21.605Z,98717.42
2019-05-18T09:16:55.628Z,98717.42
2019-05-18T09:19:29.621Z,98691.83
2019-05-18T09:22:03.434Z,98691.83
2019-05-18T09:24:37.253Z,98696.51
2019-05-18T09:27:13.734Z,98697.04
2019-05-18T09:29:47.990Z,98695.66
2019-05-18T09:32:22.148Z,98680.25
2019-05-18T09:34:57.325Z,98679.72
2019-05-18T09:37:31.427Z,98682.19
2019-05-18T09:40:05.770Z,98686.88
2019-05-18T09:42:39.808Z,98683.00
2019-05-18T09:45:15.614Z,98669.23
2019-05-18T09:47:49.445Z,98667.30
2019-05-18T09:50:23.553Z,98670.89
2019-05-18T09:52:57.880Z,98654.67
2019-05-18T09:55:31.675Z,98660.98
2019-05-18T09:58:06.019Z,98658.22
2019-05-18T10:00:40.592Z,98644.48
2019-05-18T10:03:15.391Z,98657.38
2019-05-18T10:05:49.455Z,98664.25
2019-05-18T10:08:23.560Z,98651.87
2019-05-18T10:10:57.776Z,98656.84
2019-05-18T10:13:33.631Z,98656.56
2019-05-18T10:16:07.665Z,98654.27
2019-05-18T10:18:42.033Z,98655.66
2019-05-18T10:21:16.111Z,98655.27
2019-05-18T10:23:50.239Z,98653.91
2019-05-18T10:26:24.331Z,98649.78
2019-05-18T10:28:58.340Z,98653.16
2019-05-18T10:31:32.642Z,98653.16
2019-05-18T10:34:06.955Z,98652.56
2019-05-18T10:36:40.851Z,98640.27
2019-05-18T10:39:15.447Z,98645.68
2019-05-18T10:41:49.301Z,98645.02
2019-05-18T10:44:23.422Z,98635.19
2019-05-18T10:46:57.475Z,98650.73
2019-05-18T10:49:31.384Z,98642.75
2019-05-18T10:52:05.553Z,98634.81
2019-05-18T10:54:39.880Z,98633.09
2019-05-18T10:57:14.185Z,98629.16
2019-05-18T10:59:48.940Z,98635.66
2019-05-18T11:02:22.986Z,98630.70
2019-05-18T11:04:57.204Z,98625.45
2019-05-18T11:07:31.388Z,98631.48
2019-05-18T11:10:05.732Z,98631.16
2019-05-18T11:12:40.083Z,98626.98
2019-05-18T11:15:15.880Z,98624.67
2019-05-18T11:17:50.297Z,98620.96
2019-05-18T11:20:24.895Z,98621.94
2019-05-18T11:22:58.857Z,98627.31
2019-05-18T11:25:33.333Z,98624.15
2019-05-18T11:28:07.347Z,98625.00
2019-05-18T11:30:41.403Z,98622.59
2019-05-18T11:33:15.368Z,98627.51
2019-05-18T11:35:49.525Z,98627.62
2019-05-18T11:38:23.688Z,98621.27
2019-05-18T11:40:57.950Z,98623.28
2019-05-18T11:43:32.340Z,98622.99
2019-05-18T11:46:06.607Z,98618.30
2019-05-18T11:48:40.588Z,98613.59
2019-05-18T11:51:14.651Z,98620.16
2019-05-18T11:53:57.969Z,98623.45
2019-05-18T11:56:24.310Z,98622.84
2019-05-18T11:58:58.153Z,98620.69
2019-05-18T12:01:32.379Z,98621.24
2019-05-18T12:04:06.531Z,98619.61
2019-05-18T12:06:40.645Z,98625.93
2019-05-18T12:09:14.811Z,98630.95
2019-05-18T12:11:48.696Z,98635.35
2019-05-18T12:14:22.813Z,98623.02
2019-05-18T12:16:57.073Z,98623.34
2019-05-18T12:19:30.999Z,98637.02
2019-05-18T12:22:04.902Z,98636.39
2019-05-18T12:24:38.881Z,98637.41
2019-05-18T12:27:13.010Z,98635.52
2019-05-18T12:29:46.919Z,98639.06
2019-05-18T12:32:20.825Z,98641.11
2019-05-18T12:34:55.065Z,98639.30
2019-05-18T12:37:28.959Z,98639.52
2019-05-18T12:40:03.143Z,98644.20
2019-05-18T12:42:37.338Z,98646.58
2019-05-18T12:45:13.046Z,98649.34
2019-05-18T12:47:48.126Z,98646.18
2019-05-18T12:50:22.894Z,98650.83
2019-05-18T12:52:56.895Z,98654.48
2019-05-18T12:55:31.410Z,98655.93
2019-05-18T12:58:05.674Z,98653.73
2019-05-18T13:00:40.035Z,98658.94
2019-05-18T13:03:14.046Z,98657.30
2019-05-18T13:05:48.354Z,98657.01
2019-05-18T13:08:23.207Z,98654.27
2019-05-18T13:10:57.572Z,98653.45
2019-05-18T13:13:31.635Z,98657.30
2019-05-18T13:16:05.815Z,98657.84
2019-05-18T13:18:39.868Z,98660.86
2019-05-18T13:21:14.234Z,98657.31
2019-05-18T13:23:48.072Z,98656.47
2019-05-18T13:26:22.300Z,98658.14
2019-05-18T13:28:56.316Z,98663.89
2019-05-18T13:31:30.224Z,98658.68
2019-05-18T13:34:04.385Z,98658.13
2019-05-18T13:36:38.353Z,98649.05
2019-05-18T13:39:12.710Z,98657.57
2019-05-18T13:41:46.747Z,98657.02
2019-05-18T13:44:21.034Z,98664.70
2019-05-18T13:46:54.935Z,98662.80
2019-05-18T13:49:29.294Z,98667.73
2019-05-18T13:52:03.387Z,98666.92
2019-05-18T13:54:37.681Z,98667.73
2019-05-18T13:57:11.738Z,98674.61
2019-05-18T13:59:45.761Z,98673.24
2019-05-18T14:02:20.324Z,98669.93
2019-05-18T14:04:54.368Z,98671.30
2019-05-18T14:07:28.951Z,98676.77
2019-05-18T14:10:03.121Z,98683.12
2019-05-18T14:12:37.829Z,98685.30
2019-05-18T14:15:13.490Z,98687.77
2019-05-18T14:17:47.866Z,98686.93
2019-05-18T14:20:22.563Z,98683.37
2019-05-18T14:22:56.597Z,98683.90
2019-05-18T14:25:31.665Z,98687.21
2019-05-18T14:28:06.441Z,98690.77
2019-05-18T14:30:40.578Z,98693.52
2019-05-18T14:33:14.835Z,98697.61
2019-05-18T14:35:48.949Z,98695.31
2019-05-18T14:38:23.114Z,98700.75
2019-05-18T14:40:56.961Z,98709.23
2019-05-18T14:43:32.165Z,98707.84
2019-05-18T14:46:06.447Z,98716.34
2019-05-18T14:48:40.764Z,98718.53
2019-05-18T14:51:14.873Z,98722.66
2019-05-18T14:53:48.640Z,98722.66
2019-05-18T14:56:22.824Z,98726.78
2019-05-18T14:58:57.126Z,98733.08
2019-05-18T15:01:31.072Z,98732.22
2019-05-18T15:04:04.877Z,98731.36
2019-05-18T15:06:39.419Z,98735.99
2019-05-18T15:09:13.619Z,98735.99
2019-05-18T15:11:47.958Z,98740.92
2019-05-18T15:14:22.016Z,98740.34
2019-05-18T15:16:56.245Z,98745.31
2019-05-18T15:19:30.426Z,98744.45
2019-05-18T15:22:04.669Z,98747.48
2019-05-18T15:24:38.804Z,98754.60
2019-05-18T15:27:12.700Z,98752.92
2019-05-18T15:29:47.868Z,98760.89
2019-05-18T15:32:21.919Z,98765.33
2019-05-18T15:34:56.004Z,98766.95
2019-05-18T15:37:30.132Z,98770.27
2019-05-18T15:40:04.270Z,98768.88
2019-05-18T15:42:38.348Z,98771.91
2019-05-18T15:45:12.697Z,98775.76
2019-05-18T15:47:46.934Z,98775.20
2019-05-18T15:50:21.672Z,98777.09
2019-05-18T15:52:55.526Z,98785.11
2019-05-18T15:55:29.588Z,98787.02
2019-05-18T15:58:03.546Z,98792.52
2019-05-18T16:00:37.791Z,98791.95
2019-05-18T16:03:14.838Z,98793.89
2019-05-18T16:05:48.974Z,98793.61
2019-05-18T16:08:23.267Z,98796.64
2019-05-18T16:10:57.332Z,98795.27
2019-05-18T16:13:31.398Z,98797.45
2019-05-18T16:16:05.635Z,98801.30
2019-05-18T16:18:39.676Z,98801.30
2019-05-18T16:21:13.861Z,98809.84
2019-05-18T16:23:48.034Z,98812.02
2019-05-18T16:26:22.185Z,98810.11
2019-05-18T16:28:56.273Z,98806.78
2019-05-18T16:31:30.418Z,98808.69
2019-05-18T16:34:04.833Z,98804.02
2019-05-18T16:36:39.179Z,98804.00
2019-05-18T16:39:13.133Z,98800.69
2019-05-18T16:41:47.417Z,98806.19
2019-05-18T16:44:21.578Z,98800.11
2019-05-18T16:46:55.608Z,98804.23
2019-05-18T16:49:29.948Z,98802.04
2019-05-18T16:52:04.288Z,98805.61
2019-05-18T16:54:38.404Z,98807.27
2019-05-18T16:57:12.452Z,98798.15
2019-05-18T16:59:46.416Z,98807.78
2019-05-18T17:02:31.299Z,98806.41
2019-05-18T17:04:57.485Z,98805.30
2019-05-18T17:07:31.762Z,98810.01
2019-05-18T17:10:06.969Z,98802.76
2019-05-18T17:12:41.199Z,98804.67
2019-05-18T17:15:16.456Z,98801.34
2019-05-18T17:17:50.405Z,98794.95
2019-05-18T17:20:24.798Z,98801.84
2019-05-18T17:22:59.561Z,98799.65
2019-05-18T17:25:33.574Z,98800.22
2019-05-18T17:28:07.898Z,98806.72
2019-05-18T17:30:42.918Z,98806.72
2019-05-18T17:33:17.482Z,98805.41
2019-05-18T17:35:59.924Z,98803.78
2019-05-18T17:38:27.853Z,98792.22
2019-05-18T17:41:01.831Z,98788.94
2019-05-18T17:43:35.994Z,98785.63
2019-05-18T17:46:09.894Z,98777.10
2019-05-18T17:48:44.189Z,98781.23
2019-05-18T17:51:18.438Z,98771.90
2019-05-18T17:53:53.105Z,98769.67
2019-05-18T17:56:27.170Z,98768.00
2019-05-18T17:59:01.166Z,98775.09
2019-05-18T18:01:35.228Z,98772.60
2019-05-18T18:04:09.204Z,98769.23
2019-05-18T18:06:43.190Z,98762.89
2019-05-18T18:09:17.013Z,98760.89
2019-05-18T18:11:50.997Z,98763.50
2019-05-18T18:14:24.978Z,98765.19
2019-05-18T18:16:59.025Z,98762.95
2019-05-18T18:19:33.115Z,98753.82
2019-05-18T18:22:07.394Z,98746.91
2019-05-18T18:24:41.606Z,98745.57
2019-05-18T18:27:24.556Z,98746.84
2019-05-18T18:32:23.696Z,98738.06
2019-05-18T18:34:57.765Z,98742.68
2019-05-18T18:37:31.932Z,98731.91
2019-05-18T18:40:06.262Z,98734.45
2019-05-18T18:42:40.363Z,98734.45
2019-05-18T18:45:15.793Z,98728.75
2019-05-18T18:47:49.632Z,98722.97
2019-05-18T18:50:23.743Z,98724.60
2019-05-18T18:52:57.975Z,98722.03
2019-05-18T18:55:32.424Z,98723.31
2019-05-18T18:58:06.649Z,98722.95
2019-05-18T19:00:40.825Z,98713.28
2019-05-18T19:03:15.260Z,98713.52
2019-05-18T19:05:49.324Z,98711.91
2019-05-18T19:08:23.455Z,98709.00
2019-05-18T19:10:57.463Z,98707.45
2019-05-18T19:13:31.799Z,98708.99
2019-05-18T19:16:05.765Z,98707.88
2019-05-18T19:18:39.905Z,98710.48
2019-05-18T19:21:13.984Z,98695.05
2019-05-18T19:23:48.051Z,98700.50
2019-05-18T19:26:22.199Z,98698.27
2019-05-18T19:28:56.343Z,98703.73
2019-05-18T19:31:30.403Z,98700.63
2019-05-18T19:34:04.843Z,98693.78
2019-05-18T19:36:38.812Z,98687.63
2019-05-18T19:39:13.131Z,98690.97
2019-05-18T19:41:47.227Z,98688.22
2019-05-18T19:44:23.923Z,98683.19
2019-05-18T19:46:57.069Z,98691.16
2019-05-18T19:49:31.264Z,98690.84
2019-05-18T19:52:05.055Z,98691.47
2019-05-18T19:54:39.102Z,98686.83
2019-05-18T19:57:13.998Z,98690.11
2019-05-18T19:59:48.187Z,98690.11
2019-05-18T20:02:22.861Z,98685.41
2019-05-18T20:05:07.140Z,98686.50
2019-05-18T20:07:33.049Z,98690.30
2019-05-18T20:10:07.700Z,98695.99
2019-05-18T20:12:42.238Z,98699.84
2019-05-18T20:15:16.577Z,98697.80
2019-05-18T20:17:50.750Z,98707.56
2019-05-18T20:20:24.893Z,98702.80
2019-05-18T20:22:58.971Z,98703.28
2019-05-18T20:25:32.939Z,98705.15
2019-05-18T20:28:06.978Z,98706.70
2019-05-18T20:30:41.016Z,98709.83
2019-05-18T20:33:15.023Z,98708.83
2019-05-18T20:35:49.350Z,98705.02
2019-05-18T20:38:23.418Z,98707.98
2019-05-18T20:41:57.236Z,98703.41
2019-05-18T20:44:31.179Z,98703.41
2019-05-18T20:47:05.228Z,98697.69
2019-05-18T20:49:39.317Z,98696.16
2019-05-18T20:52:13.489Z,98694.20
2019-05-18T20:54:47.458Z,98695.08
2019-05-18T20:57:21.490Z,98694.83
2019-05-18T20:59:55.683Z,98700.27
2019-05-18T21:02:29.623Z,98694.83
2019-05-18T21:05:03.757Z,98691.89
2019-05-18T21:07:37.971Z,98682.91
2019-05-18T21:10:12.405Z,98685.14
2019-05-18T21:12:46.716Z,98686.67
2019-05-18T21:15:21.216Z,98681.08
2019-05-18T21:17:55.510Z,98685.69
2019-05-18T21:20:29.700Z,98675.42
2019-05-18T21:23:04.098Z,98679.31
2019-05-18T21:25:38.355Z,98675.98
2019-05-18T21:28:12.423Z,98674.59
2019-05-18T21:30:47.736Z,98681.06
2019-05-18T21:33:21.716Z,98679.95
2019-05-18T21:35:55.591Z,98678.37
2019-05-18T21:38:29.948Z,98680.70
2019-05-18T21:41:03.795Z,98681.70
2019-05-18T21:43:38.897Z,98679.61
2019-05-18T21:46:13.073Z,98679.11
2019-05-18T21:48:47.392Z,98680.78
2019-05-18T21:51:21.544Z,98675.63
2019-05-18T21:53:55.596Z,98675.87
2019-05-18T21:56:29.659Z,98674.51
2019-05-18T21:59:11.664Z,98673.06
2019-05-18T22:01:39.455Z,98669.59
2019-05-18T22:04:13.876Z,98671.75
2019-05-18T22:06:47.964Z,98676.09
2019-05-18T22:09:22.049Z,98664.97
2019-05-18T22:11:56.199Z,98671.78
2019-05-18T22:14:30.271Z,98667.69
2019-05-18T22:17:04.467Z,98664.50
2019-05-18T22:19:38.453Z,98656.58
2019-05-18T22:22:12.624Z,98655.70
2019-05-18T22:24:46.677Z,98658.28
2019-05-18T22:27:20.661Z,98652.20
2019-05-18T22:29:54.476Z,98654.25
2019-05-18T22:32:28.652Z,98658.86
2019-05-18T22:35:02.524Z,98658.52
2019-05-18T22:37:36.661Z,98654.67
2019-05-18T22:40:10.824Z,98653.09
2019-05-18T22:42:44.752Z,98655.28
2019-05-18T22:45:18.907Z,98654.76
2019-05-18T22:47:53.008Z,98653.14
2019-05-18T22:50:27.551Z,98651.48
2019-05-18T22:53:01.672Z,98647.67
2019-05-18T22:55:35.709Z,98656.14
2019-05-18T22:58:09.889Z,98661.64
2019-05-18T23:00:43.852Z,98658.35
2019-05-18T23:03:17.899Z,98665.44
2019-05-18T23:05:52.166Z,98660.58
2019-05-18T23:08:26.269Z,98665.48
2019-05-18T23:11:00.080Z,98664.41
2019-05-18T23:13:34.343Z,98661.34
2019-05-18T23:16:08.307Z,98668.17
2019-05-18T23:18:55.931Z,98667.66
2019-05-18T23:21:18.417Z,98675.01
2019-05-18T23:23:52.658Z,98672.83
2019-05-18T23:26:26.900Z,98675.81
2019-05-18T23:29:01.025Z,98682.98
2019-05-18T23:31:35.269Z,98687.64
2019-05-18T23:34:09.531Z,98698.56
2019-05-18T23:36:43.804Z,98700.23
2019-05-18T23:39:18.077Z,98698.86
2019-05-18T23:41:51.886Z,98701.64
2019-05-18T23:44:26.566Z,98705.70
2019-05-18T23:47:00.800Z,98705.75
2019-05-18T23:49:35.009Z,98711.47
2019-05-18T23:52:09.144Z,98710.95
2019-05-18T23:54:43.441Z,98722.95
2019-05-18T23:57:17.408Z,98719.70
2019-05-18T23:59:51.492Z,98716.98
